createdAt,value
2023-01-20T00:00:06.436Z,16.38
2023-01-20T00:02:32.694Z,15.73
2023-01-20T00:04:58.968Z,15.23
2023-01-20T00:07:25.227Z,14.81
2023-01-20T00:09:51.504Z,14.99
2023-01-20T00:12:17.753Z,14.79
2023-01-20T00:14:44.039Z,15.06
2023-01-20T00:17:10.329Z,14.12
2023-01-20T00:19:36.797Z,14.00
2023-01-20T00:22:03.097Z,14.42
2023-01-20T00:24:29.351Z,14.12
2023-01-20T00:26:55.616Z,14.42
2023-01-20T00:29:21.871Z,14.25
2023-01-20T00:31:48.140Z,14.57
2023-01-20T00:34:14.398Z,14.72
2023-01-20T00:36:40.673Z,14.35
2023-01-20T00:39:06.950Z,14.87
2023-01-20T00:41:33.218Z,15.51
2023-01-20T00:43:59.478Z,15.69
2023-01-20T00:46:25.808Z,15.98
2023-01-20T00:48:52.091Z,15.86
2023-01-20T00:51:18.357Z,15.68
2023-01-20T00:53:44.612Z,16.20
2023-01-20T00:56:10.889Z,16.98
2023-01-20T00:58:37.156Z,17.30
2023-01-20T01:01:03.543Z,18.07
2023-01-20T01:03:29.929Z,17.54
2023-01-20T01:05:56.198Z,18.85
2023-01-20T01:08:22.459Z,18.99
2023-01-20T01:10:48.726Z,18.28
2023-01-20T01:13:14.978Z,18.18
2023-01-20T01:15:41.292Z,17.66
2023-01-20T01:18:07.571Z,18.24
2023-01-20T01:20:33.828Z,18.45
2023-01-20T01:23:00.124Z,18.89
2023-01-20T01:25:26.400Z,19.17
2023-01-20T01:27:52.651Z,19.05
2023-01-20T01:30:18.954Z,19.32
2023-01-20T01:32:45.265Z,19.77
2023-01-20T01:35:12.030Z,20.18
2023-01-20T01:37:38.519Z,20.44
2023-01-20T01:40:04.783Z,20.97
2023-01-20T01:42:31.056Z,21.35
2023-01-20T01:44:57.312Z,21.94
2023-01-20T01:47:23.590Z,21.10
2023-01-20T01:49:49.865Z,20.31
2023-01-20T01:52:16.164Z,20.07
2023-01-20T01:54:42.413Z,19.69
2023-01-20T01:57:08.692Z,20.28
2023-01-20T01:59:34.995Z,19.56
2023-01-20T02:02:01.371Z,20.12
2023-01-20T02:04:27.688Z,19.70
2023-01-20T02:06:53.967Z,20.43
2023-01-20T02:09:20.215Z,20.88
2023-01-20T02:11:46.484Z,21.48
2023-01-20T02:14:12.760Z,20.72
2023-01-20T02:16:39.034Z,21.06
2023-01-20T02:19:05.344Z,21.59
2023-01-20T02:21:31.624Z,21.57
2023-01-20T02:23:57.923Z,22.02
2023-01-20T02:26:24.193Z,22.92
2023-01-20T02:28:50.619Z,23.59
2023-01-20T02:31:16.899Z,24.07
2023-01-20T02:33:43.171Z,24.67
2023-01-20T02:36:09.466Z,24.20
2023-01-20T02:38:35.738Z,24.84
2023-01-20T02:41:01.994Z,25.27
2023-01-20T02:43:28.263Z,25.11
2023-01-20T02:45:54.622Z,25.51
2023-01-20T02:48:20.942Z,25.05
2023-01-20T02:50:47.318Z,25.29
2023-01-20T02:53:13.577Z,25.37
2023-01-20T02:55:39.822Z,25.00
2023-01-20T02:58:06.091Z,25.54
2023-01-20T03:00:32.347Z,25.15
2023-01-20T03:02:58.615Z,24.67
2023-01-20T03:05:25.106Z,24.54
2023-01-20T03:07:51.371Z,25.03
2023-01-20T03:10:17.620Z,24.71
2023-01-20T03:12:43.899Z,24.25
2023-01-20T03:15:10.169Z,24.13
2023-01-20T03:17:36.422Z,23.89
2023-01-20T03:20:02.672Z,23.68
2023-01-20T03:22:28.966Z,22.61
2023-01-20T03:24:55.245Z,24.15
2023-01-20T03:27:21.508Z,23.33
2023-01-20T03:29:47.791Z,23.22
2023-01-20T03:32:14.067Z,23.03
2023-01-20T03:34:40.320Z,23.07
2023-01-20T03:37:06.593Z,23.00
2023-01-20T03:39:32.885Z,23.17
2023-01-20T03:41:59.138Z,23.86
2023-01-20T03:44:25.396Z,25.10
2023-01-20T03:46:51.673Z,24.87
2023-01-20T03:49:17.971Z,23.08
2023-01-20T03:51:44.222Z,22.35
2023-01-20T03:54:10.495Z,23.61
2023-01-20T03:56:36.743Z,23.28
2023-01-20T03:59:03.032Z,23.02
2023-01-20T04:01:29.423Z,22.15
2023-01-20T04:03:55.715Z,23.87
2023-01-20T04:06:21.972Z,24.28
2023-01-20T04:08:48.253Z,25.28
2023-01-20T04:11:14.535Z,26.62
2023-01-20T04:13:40.807Z,26.77
2023-01-20T04:16:07.101Z,27.14
2023-01-20T04:18:33.381Z,30.97
2023-01-20T04:20:59.629Z,29.96
2023-01-20T04:23:25.893Z,27.21
2023-01-20T04:25:52.145Z,27.45
2023-01-20T04:28:18.420Z,26.65
2023-01-20T04:30:44.750Z,26.33
2023-01-20T04:33:11.127Z,25.68
2023-01-20T04:35:37.520Z,26.49
2023-01-20T04:38:03.792Z,26.71
2023-01-20T04:40:30.042Z,26.90
2023-01-20T04:42:56.296Z,26.59
2023-01-20T04:45:22.569Z,26.82
2023-01-20T04:47:48.823Z,27.06
2023-01-20T04:50:15.101Z,26.52
2023-01-20T04:52:41.376Z,26.71
2023-01-20T04:55:07.628Z,26.40
2023-01-20T04:57:33.889Z,26.63
2023-01-20T05:00:00.183Z,26.54
2023-01-20T05:02:26.582Z,26.54
2023-01-20T05:04:52.892Z,26.45
2023-01-20T05:07:19.153Z,27.44
2023-01-20T05:09:45.419Z,26.85
2023-01-20T05:12:11.691Z,27.48
2023-01-20T05:14:37.963Z,26.99
2023-01-20T05:17:04.236Z,26.88
2023-01-20T05:19:30.502Z,27.45
2023-01-20T05:21:56.752Z,26.82
2023-01-20T05:24:23.003Z,27.05
2023-01-20T05:26:49.304Z,28.44
2023-01-20T05:29:15.565Z,29.41
2023-01-20T05:31:41.909Z,28.86
2023-01-20T05:34:08.250Z,27.23
2023-01-20T05:36:34.510Z,28.34
2023-01-20T05:39:00.779Z,29.34
2023-01-20T05:41:27.044Z,28.07
2023-01-20T05:43:53.306Z,28.04
2023-01-20T05:46:19.608Z,27.98
2023-01-20T05:48:45.899Z,25.05
2023-01-20T05:51:12.167Z,25.46
2023-01-20T05:53:38.441Z,27.48
2023-01-20T05:56:04.850Z,27.67
2023-01-20T05:58:31.126Z,26.63
2023-01-20T06:00:57.379Z,29.19
2023-01-20T06:03:23.650Z,29.62
2023-01-20T06:05:50.012Z,26.24
2023-01-20T06:08:16.266Z,28.35
2023-01-20T06:10:42.539Z,27.61
2023-01-20T06:13:08.822Z,28.37
2023-01-20T06:15:35.171Z,26.52
2023-01-20T06:18:01.422Z,27.33
2023-01-20T06:20:27.680Z,27.68
2023-01-20T06:22:53.966Z,28.11
2023-01-20T06:25:20.223Z,27.39
2023-01-20T06:27:46.546Z,26.03
2023-01-20T06:30:12.822Z,27.04
2023-01-20T06:32:39.105Z,26.65
2023-01-20T06:35:05.360Z,27.29
2023-01-20T06:37:31.612Z,26.30
2023-01-20T06:39:57.872Z,25.68
2023-01-20T06:42:24.136Z,25.96
2023-01-20T06:44:50.406Z,25.67
2023-01-20T06:47:16.672Z,25.67
2023-01-20T06:49:42.932Z,25.01
2023-01-20T06:52:09.204Z,24.71
2023-01-20T06:54:35.485Z,23.53
2023-01-20T06:57:01.749Z,22.19
2023-01-20T06:59:28.003Z,27.73
2023-01-20T07:01:54.371Z,25.90
2023-01-20T07:04:20.743Z,23.35
2023-01-20T07:06:47.157Z,22.76
2023-01-20T07:09:13.423Z,23.03
2023-01-20T07:11:39.684Z,21.97
2023-01-20T07:14:05.958Z,21.60
2023-01-20T07:16:32.243Z,22.18
2023-01-20T07:18:58.534Z,21.72
2023-01-20T07:21:26.567Z,21.99
2023-01-20T07:23:53.016Z,24.47
2023-01-20T07:26:19.288Z,27.72
2023-01-20T07:28:45.559Z,23.94
2023-01-20T07:31:11.846Z,22.79
2023-01-20T07:33:38.132Z,23.22
2023-01-20T07:36:04.401Z,23.59
2023-01-20T07:38:30.669Z,23.48
2023-01-20T07:40:56.959Z,22.28
2023-01-20T07:43:23.234Z,21.93
2023-01-20T07:45:49.548Z,20.84
2023-01-20T07:48:15.843Z,20.41
2023-01-20T07:50:42.135Z,21.33
2023-01-20T07:53:08.512Z,21.52
2023-01-20T07:55:34.777Z,20.39
2023-01-20T07:58:01.030Z,20.95
2023-01-20T08:00:27.281Z,21.37
2023-01-20T08:02:53.555Z,20.10
2023-01-20T08:05:19.811Z,19.64
2023-01-20T08:07:46.083Z,20.58
2023-01-20T08:10:12.357Z,19.78
2023-01-20T08:12:38.609Z,21.63
2023-01-20T08:15:04.891Z,23.11
2023-01-20T08:17:31.207Z,23.28
2023-01-20T08:19:57.505Z,23.28
2023-01-20T08:22:23.781Z,23.52
2023-01-20T08:24:50.061Z,23.49
2023-01-20T08:27:16.323Z,23.19
2023-01-20T08:29:42.576Z,21.74
2023-01-20T08:32:08.845Z,22.04
2023-01-20T08:34:35.126Z,21.86
2023-01-20T08:37:01.404Z,21.79
2023-01-20T08:39:27.662Z,22.49
2023-01-20T08:41:53.935Z,22.30
2023-01-20T08:44:20.216Z,21.92
2023-01-20T08:46:46.488Z,21.77
2023-01-20T08:49:12.755Z,21.79
2023-01-20T08:51:39.037Z,21.73
2023-01-20T08:54:05.366Z,21.98
2023-01-20T08:56:31.644Z,22.06
2023-01-20T08:58:57.926Z,21.81
2023-01-20T09:01:24.224Z,22.10
2023-01-20T09:04:04.354Z,20.34
2023-01-20T09:06:31.483Z,20.54
2023-01-20T09:08:57.771Z,21.84
2023-01-20T09:11:24.050Z,21.50
2023-01-20T09:13:50.321Z,21.48
2023-01-20T09:16:16.731Z,21.63
2023-01-20T09:18:43.038Z,21.22
2023-01-20T09:21:09.286Z,22.04
2023-01-20T09:23:35.551Z,21.02
2023-01-20T09:26:01.812Z,21.66
2023-01-20T09:28:29.652Z,22.55
2023-01-20T09:30:56.647Z,22.06
2023-01-20T09:33:22.960Z,22.38
2023-01-20T09:35:49.221Z,21.94
2023-01-20T09:38:15.500Z,22.22
2023-01-20T09:40:41.782Z,21.49
2023-01-20T09:43:08.057Z,21.86
2023-01-20T09:45:34.333Z,20.88
2023-01-20T09:48:00.639Z,21.54
2023-01-20T09:50:26.911Z,22.52
2023-01-20T09:52:53.186Z,22.08
2023-01-20T09:55:19.467Z,20.93
2023-01-20T09:57:45.726Z,20.18
2023-01-20T10:00:12.019Z,21.17
2023-01-20T10:02:38.317Z,20.81
2023-01-20T10:05:04.613Z,21.50
2023-01-20T10:07:30.887Z,21.48
2023-01-20T10:09:57.136Z,21.74
2023-01-20T10:12:23.411Z,20.35
2023-01-20T10:14:49.672Z,21.55
2023-01-20T10:17:15.937Z,20.41
2023-01-20T10:19:42.191Z,19.85
2023-01-20T10:22:08.483Z,20.08
2023-01-20T10:24:34.769Z,20.45
2023-01-20T10:27:01.052Z,20.85
2023-01-20T10:29:27.309Z,21.03
2023-01-20T10:31:53.667Z,21.10
2023-01-20T10:34:19.943Z,20.61
2023-01-20T10:36:46.200Z,20.69
2023-01-20T10:39:12.495Z,20.72
2023-01-20T10:41:38.772Z,20.21
2023-01-20T10:44:05.039Z,20.42
2023-01-20T10:46:31.465Z,20.95
2023-01-20T10:48:57.747Z,21.01
2023-01-20T10:51:24.036Z,21.27
2023-01-20T10:53:50.304Z,22.14
2023-01-20T10:56:16.563Z,22.19
2023-01-20T10:58:42.828Z,23.18
2023-01-20T11:01:09.086Z,22.34
2023-01-20T11:03:35.335Z,22.20
2023-01-20T11:06:01.680Z,22.58
2023-01-20T11:08:27.953Z,23.42
2023-01-20T11:10:54.202Z,20.36
2023-01-20T11:13:20.464Z,20.44
2023-01-20T11:15:46.749Z,20.37
2023-01-20T11:18:13.055Z,20.57
2023-01-20T11:20:39.316Z,21.28
2023-01-20T11:23:05.584Z,21.29
2023-01-20T11:25:31.860Z,20.76
2023-01-20T11:27:58.131Z,20.27
2023-01-20T11:30:24.385Z,20.53
2023-01-20T11:32:50.643Z,20.64
2023-01-20T11:35:17.109Z,21.25
2023-01-20T11:37:43.420Z,20.48
2023-01-20T11:40:09.671Z,20.80
2023-01-20T11:42:36.805Z,20.33
2023-01-20T11:45:20.240Z,20.47
2023-01-20T11:47:47.326Z,20.66
2023-01-20T11:50:14.093Z,20.04
2023-01-20T11:52:40.677Z,20.06
2023-01-20T11:55:06.965Z,19.82
2023-01-20T11:57:33.213Z,19.71
2023-01-20T11:59:59.480Z,19.60
2023-01-20T12:02:25.750Z,19.40
2023-01-20T12:04:52.027Z,20.29
2023-01-20T12:07:18.283Z,20.01
2023-01-20T12:09:44.563Z,19.10
2023-01-20T12:12:10.833Z,19.43
2023-01-20T12:14:37.094Z,19.29
2023-01-20T12:17:03.366Z,19.90
2023-01-20T12:19:29.622Z,19.81
2023-01-20T12:21:55.872Z,19.95
2023-01-20T12:24:22.340Z,19.03
2023-01-20T12:26:48.719Z,19.20
2023-01-20T12:29:14.982Z,19.34
2023-01-20T12:31:41.278Z,19.33
2023-01-20T12:34:07.557Z,19.33
2023-01-20T12:36:33.830Z,19.37
2023-01-20T12:39:01.147Z,18.99
2023-01-20T12:41:27.393Z,17.88
2023-01-20T12:43:53.659Z,18.83
2023-01-20T12:46:19.920Z,18.15
2023-01-20T12:48:46.167Z,19.61
2023-01-20T12:51:12.437Z,18.95
2023-01-20T12:53:38.762Z,18.24
2023-01-20T12:56:05.152Z,18.18
2023-01-20T12:58:31.418Z,18.58
2023-01-20T13:00:57.723Z,18.21
2023-01-20T13:03:24.011Z,18.19
2023-01-20T13:05:50.262Z,18.00
2023-01-20T13:08:16.521Z,17.94
2023-01-20T13:10:42.794Z,18.54
2023-01-20T13:13:09.064Z,18.54
2023-01-20T13:15:35.351Z,18.25
2023-01-20T13:18:01.615Z,17.64
2023-01-20T13:20:27.888Z,17.70
2023-01-20T13:22:54.268Z,18.78
2023-01-20T13:25:20.555Z,18.45
2023-01-20T13:27:46.814Z,18.35
2023-01-20T13:30:13.179Z,17.83
2023-01-20T13:32:39.545Z,17.99
2023-01-20T13:35:05.825Z,17.94
2023-01-20T13:37:32.114Z,18.42
2023-01-20T13:39:58.490Z,18.43
2023-01-20T13:42:24.749Z,18.50
2023-01-20T13:44:51.007Z,21.12
2023-01-20T13:47:17.265Z,19.52
2023-01-20T13:49:43.559Z,18.43
2023-01-20T13:52:09.902Z,18.75
2023-01-20T13:54:36.183Z,19.01
2023-01-20T13:57:02.441Z,22.90
2023-01-20T13:59:28.711Z,21.13
2023-01-20T14:01:54.973Z,21.64
2023-01-20T14:04:21.239Z,23.27
2023-01-20T14:06:47.554Z,21.25
2023-01-20T14:09:13.875Z,20.09
2023-01-20T14:11:40.155Z,18.85
2023-01-20T14:14:06.429Z,17.29
2023-01-20T14:16:32.769Z,16.58
2023-01-20T14:18:59.053Z,16.65
2023-01-20T14:21:25.307Z,16.67
2023-01-20T14:23:51.578Z,16.58
2023-01-20T14:26:17.840Z,17.30
2023-01-20T14:28:44.098Z,18.08
2023-01-20T14:31:10.456Z,19.67
2023-01-20T14:33:36.770Z,19.14
2023-01-20T14:36:03.019Z,18.69
2023-01-20T14:38:29.279Z,18.91
2023-01-20T14:40:55.563Z,19.16
2023-01-20T14:43:21.850Z,20.03
2023-01-20T14:45:48.144Z,18.84
2023-01-20T14:48:28.312Z,19.42
2023-01-20T14:50:59.134Z,19.60
2023-01-20T14:53:25.414Z,19.29
2023-01-20T14:55:51.665Z,18.39
2023-01-20T14:58:17.942Z,19.53
2023-01-20T15:00:44.208Z,17.95
2023-01-20T15:03:11.837Z,17.61
2023-01-20T15:05:38.363Z,18.35
2023-01-20T15:08:04.632Z,17.37
2023-01-20T15:10:30.899Z,18.67
2023-01-20T15:12:57.161Z,19.82
2023-01-20T15:15:23.435Z,20.11
2023-01-20T15:17:49.701Z,20.39
2023-01-20T15:20:16.187Z,21.27
2023-01-20T15:22:42.648Z,19.31
2023-01-20T15:25:08.903Z,19.17
2023-01-20T15:27:35.170Z,17.90
2023-01-20T15:30:01.451Z,19.51
2023-01-20T15:32:27.711Z,17.86
2023-01-20T15:34:53.961Z,18.16
2023-01-20T15:37:20.234Z,18.46
2023-01-20T15:39:46.511Z,55.74
2023-01-20T15:42:12.771Z,32.81
2023-01-20T15:44:39.042Z,22.71
2023-01-20T15:47:05.299Z,20.64
2023-01-20T15:49:31.562Z,19.99
2023-01-20T15:51:57.827Z,21.26
2023-01-20T15:54:24.086Z,21.22
2023-01-20T15:56:50.357Z,19.91
2023-01-20T15:59:16.670Z,20.46
2023-01-20T16:01:42.961Z,20.61
2023-01-20T16:04:09.217Z,20.69
2023-01-20T16:06:35.489Z,19.95
2023-01-20T16:09:01.746Z,23.13
2023-01-20T16:11:28.003Z,21.13
2023-01-20T16:13:54.290Z,22.22
2023-01-20T16:16:20.632Z,19.18
2023-01-20T16:18:46.934Z,22.76
2023-01-20T16:21:13.192Z,21.23
2023-01-20T16:23:39.440Z,22.19
2023-01-20T16:26:05.686Z,28.76
2023-01-20T16:28:31.964Z,33.22
2023-01-20T16:30:58.226Z,31.59
2023-01-20T16:33:24.878Z,27.81
2023-01-20T16:35:51.207Z,25.91
2023-01-20T16:38:17.460Z,29.29
2023-01-20T16:40:43.741Z,42.83
2023-01-20T16:43:11.879Z,37.19
2023-01-20T16:45:38.948Z,28.76
2023-01-20T16:48:05.245Z,28.66
2023-01-20T16:50:31.591Z,18.96
2023-01-20T16:52:57.852Z,18.70
2023-01-20T16:55:24.137Z,20.24
2023-01-20T16:57:50.419Z,22.53
2023-01-20T17:00:18.846Z,21.70
2023-01-20T17:02:45.467Z,19.54
2023-01-20T17:05:11.708Z,19.72
2023-01-20T17:07:38.035Z,19.12
2023-01-20T17:10:04.296Z,17.66
2023-01-20T17:12:30.559Z,17.47
2023-01-20T17:14:56.818Z,19.62
2023-01-20T17:17:23.081Z,21.13
2023-01-20T17:19:49.350Z,38.63
2023-01-20T17:22:15.609Z,27.16
2023-01-20T17:24:41.861Z,37.15
2023-01-20T17:27:08.125Z,27.55
2023-01-20T17:29:34.390Z,33.10
2023-01-20T17:32:00.703Z,30.08
2023-01-20T17:34:26.992Z,21.13
2023-01-20T17:36:53.263Z,18.89
2023-01-20T17:39:19.537Z,25.06
2023-01-20T17:41:45.899Z,27.72
2023-01-20T17:44:12.171Z,31.97
2023-01-20T17:46:38.425Z,25.06
2023-01-20T17:49:04.716Z,18.17
2023-01-20T17:51:30.988Z,16.33
2023-01-20T17:53:57.260Z,17.56
2023-01-20T17:56:23.519Z,17.35
2023-01-20T17:58:49.791Z,20.92
2023-01-20T18:01:16.217Z,48.11
2023-01-20T18:03:43.206Z,28.43
2023-01-20T18:06:09.628Z,25.70
2023-01-20T18:08:35.888Z,26.82
2023-01-20T18:11:02.157Z,28.09
2023-01-20T18:13:28.550Z,31.50
2023-01-20T18:15:54.876Z,34.49
2023-01-20T18:18:21.176Z,35.46
2023-01-20T18:20:47.456Z,28.19
2023-01-20T18:23:13.719Z,23.65
2023-01-20T18:25:39.969Z,21.76
2023-01-20T18:28:06.225Z,32.22
2023-01-20T18:30:32.582Z,32.68
2023-01-20T18:32:58.889Z,29.46
2023-01-20T18:35:25.162Z,25.59
2023-01-20T18:37:51.442Z,30.52
2023-01-20T18:40:18.186Z,48.89
2023-01-20T18:42:44.652Z,31.69
2023-01-20T18:45:10.928Z,22.11
2023-01-20T18:47:37.180Z,32.65
2023-01-20T18:50:03.452Z,31.24
2023-01-20T18:52:29.723Z,100.49
2023-01-20T18:54:56.100Z,74.61
2023-01-20T18:57:22.368Z,39.69
2023-01-20T18:59:48.660Z,26.93
2023-01-20T19:02:14.944Z,37.66
2023-01-20T19:04:41.225Z,52.49
2023-01-20T19:07:07.495Z,36.65
2023-01-20T19:09:33.756Z,22.34
2023-01-20T19:12:00.007Z,20.21
2023-01-20T19:14:26.259Z,31.63
2023-01-20T19:16:52.527Z,27.76
2023-01-20T19:19:18.825Z,16.16
2023-01-20T19:21:45.109Z,18.48
2023-01-20T19:24:11.374Z,18.93
2023-01-20T19:26:37.650Z,19.07
2023-01-20T19:29:03.909Z,19.60
2023-01-20T19:31:30.258Z,19.01
2023-01-20T19:33:56.545Z,18.37
2023-01-20T19:36:22.807Z,18.16
2023-01-20T19:38:49.069Z,19.14
2023-01-20T19:41:15.355Z,19.40
2023-01-20T19:43:41.627Z,19.74
2023-01-20T19:46:07.926Z,19.80
2023-01-20T19:48:34.211Z,20.63
2023-01-20T19:51:00.486Z,19.97
2023-01-20T19:53:26.787Z,20.36
2023-01-20T19:55:53.066Z,20.05
2023-01-20T19:58:19.311Z,21.50
2023-01-20T20:00:45.575Z,21.68
2023-01-20T20:03:11.843Z,22.07
2023-01-20T20:05:38.105Z,22.67
2023-01-20T20:08:04.379Z,22.93
2023-01-20T20:10:30.631Z,24.12
2023-01-20T20:12:56.884Z,24.21
2023-01-20T20:15:23.137Z,22.89
2023-01-20T20:17:49.400Z,21.14
2023-01-20T20:20:16.027Z,21.67
2023-01-20T20:22:42.442Z,20.59
2023-01-20T20:25:11.283Z,21.99
2023-01-20T20:27:37.668Z,22.02
2023-01-20T20:30:03.943Z,22.23
2023-01-20T20:32:30.284Z,22.77
2023-01-20T20:34:56.551Z,24.37
2023-01-20T20:37:22.829Z,24.96
2023-01-20T20:39:49.100Z,25.91
2023-01-20T20:42:15.349Z,25.02
2023-01-20T20:44:41.594Z,23.66
2023-01-20T20:47:07.958Z,24.66
2023-01-20T20:49:34.231Z,23.55
2023-01-20T20:52:00.543Z,23.15
2023-01-20T20:54:26.791Z,22.88
2023-01-20T20:56:53.063Z,23.85
2023-01-20T20:59:19.330Z,23.59
2023-01-20T21:01:45.592Z,24.08
2023-01-20T21:04:11.921Z,24.45
2023-01-20T21:06:38.200Z,26.12
2023-01-20T21:09:04.478Z,26.16
2023-01-20T21:11:30.781Z,25.46
2023-01-20T21:13:57.047Z,25.00
2023-01-20T21:16:23.795Z,24.53
2023-01-20T21:18:50.290Z,23.90
2023-01-20T21:21:16.549Z,24.28
2023-01-20T21:23:42.835Z,24.36
2023-01-20T21:26:09.108Z,22.64
2023-01-20T21:28:35.368Z,23.20
2023-01-20T21:31:01.672Z,21.73
2023-01-20T21:33:27.943Z,21.88
2023-01-20T21:35:54.190Z,22.64
2023-01-20T21:38:20.450Z,22.60
2023-01-20T21:40:46.715Z,22.28
2023-01-20T21:43:12.974Z,22.31
2023-01-20T21:45:39.248Z,21.50
2023-01-20T21:48:05.513Z,20.56
2023-01-20T21:50:31.848Z,19.34
2023-01-20T21:52:58.124Z,18.43
2023-01-20T21:55:24.389Z,18.11
2023-01-20T21:57:51.524Z,17.59
2023-01-20T22:00:18.283Z,17.66
2023-01-20T22:02:44.834Z,16.58
2023-01-20T22:05:11.120Z,16.17
2023-01-20T22:07:37.395Z,17.50
2023-01-20T22:10:03.647Z,18.22
2023-01-20T22:12:29.908Z,19.26
2023-01-20T22:14:56.153Z,19.87
2023-01-20T22:17:22.421Z,20.11
2023-01-20T22:19:48.691Z,19.55
2023-01-20T22:22:15.399Z,18.52
2023-01-20T22:24:41.715Z,19.32
2023-01-20T22:27:07.982Z,18.94
2023-01-20T22:29:34.365Z,19.11
2023-01-20T22:32:00.625Z,19.03
2023-01-20T22:34:26.908Z,19.95
2023-01-20T22:36:53.180Z,21.27
2023-01-20T22:39:19.476Z,22.84
2023-01-20T22:41:45.743Z,21.97
2023-01-20T22:44:12.017Z,21.69
2023-01-20T22:46:38.327Z,22.05
2023-01-20T22:49:04.606Z,22.91
2023-01-20T22:51:30.889Z,23.53
2023-01-20T22:53:57.182Z,22.94
2023-01-20T22:56:23.443Z,21.29
2023-01-20T22:58:49.746Z,16.93
2023-01-20T23:01:16.069Z,16.18
2023-01-20T23:03:42.383Z,15.92
2023-01-20T23:06:08.672Z,16.22
2023-01-20T23:08:34.962Z,16.10
2023-01-20T23:11:01.216Z,14.65
2023-01-20T23:13:27.497Z,12.73
2023-01-20T23:15:53.749Z,11.60
2023-01-20T23:18:19.991Z,11.43
2023-01-20T23:20:46.285Z,11.57
2023-01-20T23:23:12.574Z,14.14
2023-01-20T23:25:38.861Z,17.71
2023-01-20T23:28:05.149Z,20.67
2023-01-20T23:30:31.684Z,21.11
2023-01-20T23:32:58.001Z,21.97
2023-01-20T23:35:24.263Z,19.51
2023-01-20T23:37:50.513Z,19.43
2023-01-20T23:40:16.955Z,20.96
2023-01-20T23:42:43.472Z,20.57
2023-01-20T23:45:09.725Z,20.42
2023-01-20T23:47:36.003Z,23.85
2023-01-20T23:50:02.322Z,22.18
2023-01-20T23:52:28.595Z,22.77
2023-01-20T23:54:54.848Z,22.12
2023-01-20T23:57:21.092Z,21.62
2023-01-20T23:59:47.368Z,20.29
